sensor_id;sensor_type;location;lat;lon;timestamp;pressure;altitude;pressure_sealevel;temperature;humidity
79729;BME280;69218;52.132;5.418;2023-06-22T00:00:01;102072.56;;;18.48;73.37
79729;BME280;69218;52.132;5.418;2023-06-22T00:02:29;102075.66;;;18.43;73.15
79729;BME280;69218;52.132;5.418;2023-06-22T00:04:55;102071.31;;;18.42;74.63
79729;BME280;69218;52.132;5.418;2023-06-22T00:07:21;102067.25;;;18.38;74.68
79729;BME280;69218;52.132;5.418;2023-06-22T00:09:48;102064.50;;;18.39;69.65
79729;BME280;69218;52.132;5.418;2023-06-22T00:12:14;102069.66;;;18.41;72.99
79729;BME280;69218;52.132;5.418;2023-06-22T00:14:41;102078.88;;;18.37;74.46
79729;BME280;69218;52.132;5.418;2023-06-22T00:17:07;102072.44;;;18.30;72.77
79729;BME280;69218;52.132;5.418;2023-06-22T00:19:34;102063.50;;;18.31;73.16
79729;BME280;69218;52.132;5.418;2023-06-22T00:22:02;102069.94;;;18.28;72.40
79729;BME280;69218;52.132;5.418;2023-06-22T00:24:29;102073.75;;;18.26;71.64
79729;BME280;69218;52.132;5.418;2023-06-22T00:26:56;102068.00;;;18.21;74.67
79729;BME280;69218;52.132;5.418;2023-06-22T00:29:22;102059.63;;;18.16;73.67
79729;BME280;69218;52.132;5.418;2023-06-22T00:31:51;102058.25;;;18.11;74.79
79729;BME280;69218;52.132;5.418;2023-06-22T00:34:17;102051.38;;;18.09;73.01
79729;BME280;69218;52.132;5.418;2023-06-22T00:36:48;102050.28;;;18.11;70.70
79729;BME280;69218;52.132;5.418;2023-06-22T00:39:17;102053.63;;;18.14;69.94
79729;BME280;69218;52.132;5.418;2023-06-22T00:41:44;102054.63;;;18.13;74.14
79729;BME280;69218;52.132;5.418;2023-06-22T00:44:10;102046.78;;;18.01;74.40
79729;BME280;69218;52.132;5.418;2023-06-22T00:46:37;102048.47;;;17.93;73.00
79729;BME280;69218;52.132;5.418;2023-06-22T00:49:03;102048.75;;;17.90;72.94
79729;BME280;69218;52.132;5.418;2023-06-22T00:51:31;102045.69;;;17.94;70.45
79729;BME280;69218;52.132;5.418;2023-06-22T00:53:58;102052.38;;;17.98;72.25
79729;BME280;69218;52.132;5.418;2023-06-22T00:56:25;102050.56;;;17.99;70.28
79729;BME280;69218;52.132;5.418;2023-06-22T00:58:53;102044.28;;;18.00;70.02
79729;BME280;69218;52.132;5.418;2023-06-22T01:01:20;102050.56;;;17.99;71.21
79729;BME280;69218;52.132;5.418;2023-06-22T01:03:50;102038.28;;;17.98;69.10
79729;BME280;69218;52.132;5.418;2023-06-22T01:06:35;102042.75;;;17.97;71.84
79729;BME280;69218;52.132;5.418;2023-06-22T01:09:22;102038.56;;;17.85;72.79
79729;BME280;69218;52.132;5.418;2023-06-22T01:11:57;102045.97;;;17.72;76.35
79729;BME280;69218;52.132;5.418;2023-06-22T01:14:39;102049.13;;;17.66;72.73
79729;BME280;69218;52.132;5.418;2023-06-22T01:17:08;102055.97;;;17.68;73.33
79729;BME280;69218;52.132;5.418;2023-06-22T01:19:45;102055.56;;;17.63;73.49
79729;BME280;69218;52.132;5.418;2023-06-22T01:22:16;102064.50;;;17.62;71.71
79729;BME280;69218;52.132;5.418;2023-06-22T01:28:10;102043.00;;;17.55;70.88
79729;BME280;69218;52.132;5.418;2023-06-22T01:30:45;102043.13;;;17.54;71.74
79729;BME280;69218;52.132;5.418;2023-06-22T01:33:13;102045.75;;;17.54;72.14
79729;BME280;69218;52.132;5.418;2023-06-22T01:35:41;102040.91;;;17.49;72.44
79729;BME280;69218;52.132;5.418;2023-06-22T01:38:18;102046.59;;;17.45;71.70
79729;BME280;69218;52.132;5.418;2023-06-22T01:41:00;102045.63;;;17.46;71.29
79729;BME280;69218;52.132;5.418;2023-06-22T01:43:28;102050.22;;;17.44;72.65
79729;BME280;69218;52.132;5.418;2023-06-22T01:45:55;102043.41;;;17.41;70.79
79729;BME280;69218;52.132;5.418;2023-06-22T01:48:23;102047.97;;;17.39;69.85
79729;BME280;69218;52.132;5.418;2023-06-22T01:50:49;102037.53;;;17.38;71.48
79729;BME280;69218;52.132;5.418;2023-06-22T01:53:16;102037.09;;;17.33;72.03
79729;BME280;69218;52.132;5.418;2023-06-22T01:55:42;102029.41;;;17.29;73.21
79729;BME280;69218;52.132;5.418;2023-06-22T01:58:09;102039.03;;;17.30;71.04
79729;BME280;69218;52.132;5.418;2023-06-22T02:00:38;102036.53;;;17.29;72.52
79729;BME280;69218;52.132;5.418;2023-06-22T02:03:19;102039.44;;;17.26;73.15
79729;BME280;69218;52.132;5.418;2023-06-22T02:06:06;102042.09;;;17.26;70.58
79729;BME280;69218;52.132;5.418;2023-06-22T02:08:40;102029.97;;;17.23;70.74
79729;BME280;69218;52.132;5.418;2023-06-22T02:11:09;102024.38;;;17.17;74.22
79729;BME280;69218;52.132;5.418;2023-06-22T02:13:37;102024.22;;;17.09;72.72
79729;BME280;69218;52.132;5.418;2023-06-22T02:16:04;102017.38;;;17.06;72.00
79729;BME280;69218;52.132;5.418;2023-06-22T02:18:31;102027.84;;;17.08;71.63
79729;BME280;69218;52.132;5.418;2023-06-22T02:20:57;102030.34;;;17.09;73.66
79729;BME280;69218;52.132;5.418;2023-06-22T02:23:24;102023.63;;;17.05;73.31
79729;BME280;69218;52.132;5.418;2023-06-22T02:25:50;102033.22;;;16.96;75.87
79729;BME280;69218;52.132;5.418;2023-06-22T02:28:17;102028.59;;;16.89;75.41
79729;BME280;69218;52.132;5.418;2023-06-22T02:30:43;102013.69;;;16.88;71.41
79729;BME280;69218;52.132;5.418;2023-06-22T02:33:10;102016.19;;;16.89;70.42
79729;BME280;69218;52.132;5.418;2023-06-22T02:35:36;102022.19;;;16.91;70.24
79729;BME280;69218;52.132;5.418;2023-06-22T02:38:04;102025.97;;;16.89;75.28
79729;BME280;69218;52.132;5.418;2023-06-22T02:40:30;102024.97;;;16.80;72.89
79729;BME280;69218;52.132;5.418;2023-06-22T02:42:59;102022.31;;;16.80;76.30
79729;BME280;69218;52.132;5.418;2023-06-22T02:45:29;102024.94;;;16.70;76.53
79729;BME280;69218;52.132;5.418;2023-06-22T02:47:55;102018.47;;;16.63;75.26
79729;BME280;69218;52.132;5.418;2023-06-22T02:50:22;102018.00;;;16.58;77.08
79729;BME280;69218;52.132;5.418;2023-06-22T02:52:49;102015.50;;;16.57;76.88
79729;BME280;69218;52.132;5.418;2023-06-22T02:55:15;102010.19;;;16.57;77.25
79729;BME280;69218;52.132;5.418;2023-06-22T02:57:42;102018.38;;;16.54;77.94
79729;BME280;69218;52.132;5.418;2023-06-22T03:00:10;102008.91;;;16.51;74.32
79729;BME280;69218;52.132;5.418;2023-06-22T03:02:45;102016.44;;;16.56;72.46
79729;BME280;69218;52.132;5.418;2023-06-22T03:05:12;102012.00;;;16.56;74.03
79729;BME280;69218;52.132;5.418;2023-06-22T03:07:40;102012.97;;;16.55;76.27
79729;BME280;69218;52.132;5.418;2023-06-22T03:10:12;102013.94;;;16.54;72.72
79729;BME280;69218;52.132;5.418;2023-06-22T03:12:41;102020.34;;;16.52;73.61
79729;BME280;69218;52.132;5.418;2023-06-22T03:15:10;102020.47;;;16.50;74.96
79729;BME280;69218;52.132;5.418;2023-06-22T03:17:38;102016.41;;;16.46;73.94
79729;BME280;69218;52.132;5.418;2023-06-22T03:20:08;102016.41;;;16.46;73.43
79729;BME280;69218;52.132;5.418;2023-06-22T03:22:36;102013.75;;;16.46;73.26
79729;BME280;69218;52.132;5.418;2023-06-22T03:25:03;102025.03;;;16.48;72.20
79729;BME280;69218;52.132;5.418;2023-06-22T03:27:31;102018.91;;;16.47;72.03
79729;BME280;69218;52.132;5.418;2023-06-22T03:29:58;102013.75;;;16.46;73.02
79729;BME280;69218;52.132;5.418;2023-06-22T03:32:24;102002.19;;;16.47;73.53
79729;BME280;69218;52.132;5.418;2023-06-22T03:34:56;101997.19;;;16.44;73.37
79729;BME280;69218;52.132;5.418;2023-06-22T03:37:27;102007.75;;;16.44;73.62
79729;BME280;69218;52.132;5.418;2023-06-22T03:39:53;101996.34;;;16.43;72.45
79729;BME280;69218;52.132;5.418;2023-06-22T03:42:20;101992.59;;;16.46;73.63
79729;BME280;69218;52.132;5.418;2023-06-22T03:44:47;101995.22;;;16.46;72.62
79729;BME280;69218;52.132;5.418;2023-06-22T03:47:13;101996.19;;;16.45;74.72
79729;BME280;69218;52.132;5.418;2023-06-22T03:49:40;101997.19;;;16.44;72.72
79729;BME280;69218;52.132;5.418;2023-06-22T03:52:07;101999.00;;;16.43;74.54
79729;BME280;69218;52.132;5.418;2023-06-22T03:54:34;101992.97;;;16.41;73.90
79729;BME280;69218;52.132;5.418;2023-06-22T03:57:00;101990.22;;;16.43;76.69
79729;BME280;69218;52.132;5.418;2023-06-22T03:59:27;101988.66;;;16.40;76.40
79729;BME280;69218;52.132;5.418;2023-06-22T04:01:53;101986.00;;;16.40;72.90
79729;BME280;69218;52.132;5.418;2023-06-22T04:04:20;101991.75;;;16.45;76.03
79729;BME280;69218;52.132;5.418;2023-06-22T04:06:47;101994.25;;;16.47;76.75
79729;BME280;69218;52.132;5.418;2023-06-22T04:09:13;101993.41;;;16.46;73.53
79729;BME280;69218;52.132;5.418;2023-06-22T04:11:40;101991.75;;;16.45;75.38
79729;BME280;69218;52.132;5.418;2023-06-22T04:14:06;101983.81;;;16.45;77.99
79729;BME280;69218;52.132;5.418;2023-06-22T04:16:33;101980.03;;;16.48;73.60
79729;BME280;69218;52.132;5.418;2023-06-22T04:18:59;101978.81;;;16.52;74.71
79729;BME280;69218;52.132;5.418;2023-06-22T04:21:26;101974.94;;;16.56;73.39
79729;BME280;69218;52.132;5.418;2023-06-22T04:23:52;101984.28;;;16.60;74.59
79729;BME280;69218;52.132;5.418;2023-06-22T04:26:19;101977.63;;;16.66;75.82
79729;BME280;69218;52.132;5.418;2023-06-22T04:28:47;101973.75;;;16.70;75.47
79729;BME280;69218;52.132;5.418;2023-06-22T04:31:18;101968.06;;;16.74;75.50
79729;BME280;69218;52.132;5.418;2023-06-22T04:33:45;101979.34;;;16.77;76.47
79729;BME280;69218;52.132;5.418;2023-06-22T04:36:12;101978.81;;;16.83;77.13
79729;BME280;69218;52.132;5.418;2023-06-22T04:38:41;101979.41;;;16.86;76.23
79729;BME280;69218;52.132;5.418;2023-06-22T04:41:08;101974.66;;;16.90;77.72
79729;BME280;69218;52.132;5.418;2023-06-22T04:43:40;101975.09;;;16.95;78.67
79729;BME280;69218;52.132;5.418;2023-06-22T04:46:07;101973.84;;;16.99;77.04
79729;BME280;69218;52.132;5.418;2023-06-22T04:48:33;101981.22;;;17.05;77.94
79729;BME280;69218;52.132;5.418;2023-06-22T04:51:01;101982.66;;;17.09;78.70
79729;BME280;69218;52.132;5.418;2023-06-22T04:53:31;101975.28;;;17.13;76.93
79729;BME280;69218;52.132;5.418;2023-06-22T04:55:57;101975.53;;;17.19;77.30
79729;BME280;69218;52.132;5.418;2023-06-22T04:58:24;101987.16;;;17.28;78.50
79729;BME280;69218;52.132;5.418;2023-06-22T05:00:55;101987.84;;;17.30;78.13
79729;BME280;69218;52.132;5.418;2023-06-22T05:03:25;101982.00;;;17.36;78.61
79729;BME280;69218;52.132;5.418;2023-06-22T05:05:52;101990.50;;;17.40;77.61
79729;BME280;69218;52.132;5.418;2023-06-22T05:08:20;101995.09;;;17.47;77.49
79729;BME280;69218;52.132;5.418;2023-06-22T05:10:46;101984.38;;;17.58;76.92
79729;BME280;69218;52.132;5.418;2023-06-22T05:13:30;101981.59;;;17.70;77.25
79729;BME280;69218;52.132;5.418;2023-06-22T05:15:56;101983.84;;;17.74;78.18
79729;BME280;69218;52.132;5.418;2023-06-22T05:18:28;101986.22;;;17.77;78.32
79729;BME280;69218;52.132;5.418;2023-06-22T05:20:56;101993.03;;;17.80;78.82
79729;BME280;69218;52.132;5.418;2023-06-22T05:23:22;101985.66;;;17.83;78.93
79729;BME280;69218;52.132;5.418;2023-06-22T05:25:49;101985.63;;;17.93;79.05
79729;BME280;69218;52.132;5.418;2023-06-22T05:28:15;101981.69;;;18.07;78.55
79729;BME280;69218;52.132;5.418;2023-06-22T05:30:42;101979.13;;;18.25;75.74
79729;BME280;69218;52.132;5.418;2023-06-22T05:33:09;101984.69;;;18.41;76.04
79729;BME280;69218;52.132;5.418;2023-06-22T05:35:35;101988.22;;;18.59;76.37
79729;BME280;69218;52.132;5.418;2023-06-22T05:38:02;101989.59;;;18.73;74.47
79729;BME280;69218;52.132;5.418;2023-06-22T05:40:28;101988.72;;;18.82;76.01
79729;BME280;69218;52.132;5.418;2023-06-22T05:42:55;101988.81;;;18.90;75.93
79729;BME280;69218;52.132;5.418;2023-06-22T05:45:21;101992.47;;;18.89;75.80
79729;BME280;69218;52.132;5.418;2023-06-22T05:47:48;101995.41;;;18.86;75.97
79729;BME280;69218;52.132;5.418;2023-06-22T05:50:15;102000.28;;;18.91;76.25
79729;BME280;69218;52.132;5.418;2023-06-22T05:52:41;101992.56;;;18.98;76.93
79729;BME280;69218;52.132;5.418;2023-06-22T05:55:08;101987.63;;;19.03;73.27
79729;BME280;69218;52.132;5.418;2023-06-22T05:57:35;101990.16;;;19.04;75.03
79729;BME280;69218;52.132;5.418;2023-06-22T06:00:01;101999.19;;;19.11;75.20
79729;BME280;69218;52.132;5.418;2023-06-22T06:02:32;101999.91;;;19.31;73.15
79729;BME280;69218;52.132;5.418;2023-06-22T06:05:00;101994.22;;;19.62;75.17
79729;BME280;69218;52.132;5.418;2023-06-22T06:07:29;101991.41;;;19.81;73.42
79729;BME280;69218;52.132;5.418;2023-06-22T06:09:56;101987.81;;;19.90;73.00
79729;BME280;69218;52.132;5.418;2023-06-22T06:12:22;101984.91;;;20.01;73.09
79729;BME280;69218;52.132;5.418;2023-06-22T06:14:49;101984.13;;;20.09;71.97
79729;BME280;69218;52.132;5.418;2023-06-22T06:17:17;101984.34;;;20.16;71.93
79729;BME280;69218;52.132;5.418;2023-06-22T06:19:44;101973.41;;;20.27;71.48
79729;BME280;69218;52.132;5.418;2023-06-22T06:22:10;101970.38;;;20.22;70.71
79729;BME280;69218;52.132;5.418;2023-06-22T06:24:37;101970.59;;;20.37;72.16
79729;BME280;69218;52.132;5.418;2023-06-22T06:27:03;101966.47;;;20.42;71.11
79729;BME280;69218;52.132;5.418;2023-06-22T06:29:31;101970.72;;;20.45;71.56
79729;BME280;69218;52.132;5.418;2023-06-22T06:31:58;101970.09;;;20.59;71.14
79729;BME280;69218;52.132;5.418;2023-06-22T06:34:25;101966.97;;;20.72;69.67
79729;BME280;69218;52.132;5.418;2023-06-22T06:36:51;101967.53;;;20.83;69.96
79729;BME280;69218;52.132;5.418;2023-06-22T06:39:18;101964.56;;;20.95;69.79
79729;BME280;69218;52.132;5.418;2023-06-22T06:41:44;101962.22;;;21.00;69.38
79729;BME280;69218;52.132;5.418;2023-06-22T06:44:10;101959.09;;;21.12;70.23
79729;BME280;69218;52.132;5.418;2023-06-22T06:46:37;101961.28;;;21.25;68.88
79729;BME280;69218;52.132;5.418;2023-06-22T06:49:04;101956.34;;;21.30;68.48
79729;BME280;69218;52.132;5.418;2023-06-22T06:51:30;101946.19;;;21.50;68.27
79729;BME280;69218;52.132;5.418;2023-06-22T06:53:57;101953.16;;;21.67;67.33
79729;BME280;69218;52.132;5.418;2023-06-22T06:56:24;101945.81;;;21.78;67.26
79729;BME280;69218;52.132;5.418;2023-06-22T06:58:51;101962.31;;;21.89;67.02
79729;BME280;69218;52.132;5.418;2023-06-22T07:01:18;101949.44;;;22.01;67.44
79729;BME280;69218;52.132;5.418;2023-06-22T07:03:48;101950.81;;;22.13;67.57
79729;BME280;69218;52.132;5.418;2023-06-22T07:06:14;101949.94;;;22.21;65.79
79729;BME280;69218;52.132;5.418;2023-06-22T07:08:42;101948.41;;;22.27;65.72
79729;BME280;69218;52.132;5.418;2023-06-22T07:11:09;101950.09;;;22.28;65.07
79729;BME280;69218;52.132;5.418;2023-06-22T07:13:35;101947.75;;;22.25;64.30
79729;BME280;69218;52.132;5.418;2023-06-22T07:16:02;101947.28;;;22.21;64.54
79729;BME280;69218;52.132;5.418;2023-06-22T07:18:28;101935.41;;;22.24;64.92
79729;BME280;69218;52.132;5.418;2023-06-22T07:20:55;101942.91;;;22.28;64.33
79729;BME280;69218;52.132;5.418;2023-06-22T07:23:21;101944.91;;;22.34;63.60
79729;BME280;69218;52.132;5.418;2023-06-22T07:25:48;101948.41;;;22.35;64.87
79729;BME280;69218;52.132;5.418;2023-06-22T07:30:42;101952.44;;;22.70;62.91
79729;BME280;69218;52.132;5.418;2023-06-22T07:33:09;101949.00;;;22.84;62.42
79729;BME280;69218;52.132;5.418;2023-06-22T07:35:35;101950.13;;;22.98;61.16
79729;BME280;69218;52.132;5.418;2023-06-22T07:38:02;101947.53;;;23.13;60.57
79729;BME280;69218;52.132;5.418;2023-06-22T07:40:32;101936.63;;;23.37;61.09
79729;BME280;69218;52.132;5.418;2023-06-22T07:42:59;101932.63;;;23.56;59.96
79729;BME280;69218;52.132;5.418;2023-06-22T07:45:26;101927.63;;;23.53;59.64
79729;BME280;69218;52.132;5.418;2023-06-22T07:47:52;101925.03;;;23.45;60.03
79729;BME280;69218;52.132;5.418;2023-06-22T07:50:19;101916.81;;;23.46;60.28
79729;BME280;69218;52.132;5.418;2023-06-22T07:52:45;101916.09;;;23.52;61.13
79729;BME280;69218;52.132;5.418;2023-06-22T07:55:13;101913.06;;;23.55;59.96
79729;BME280;69218;52.132;5.418;2023-06-22T07:57:40;101925.56;;;23.63;60.01
79729;BME280;69218;52.132;5.418;2023-06-22T08:00:09;101922.34;;;23.68;59.72
79729;BME280;69218;52.132;5.418;2023-06-22T08:02:44;101921.44;;;23.75;59.33
79729;BME280;69218;52.132;5.418;2023-06-22T08:05:12;101911.66;;;23.82;58.82
79729;BME280;69218;52.132;5.418;2023-06-22T08:07:59;101906.31;;;23.97;58.87
79729;BME280;69218;52.132;5.418;2023-06-22T08:10:25;101901.97;;;24.11;57.79
79729;BME280;69218;52.132;5.418;2023-06-22T08:12:52;101895.09;;;24.23;57.68
79729;BME280;69218;52.132;5.418;2023-06-22T08:15:19;101891.81;;;24.36;57.64
79729;BME280;69218;52.132;5.418;2023-06-22T08:17:45;101881.75;;;24.59;56.84
79729;BME280;69218;52.132;5.418;2023-06-22T08:20:13;101888.22;;;24.65;55.25
79729;BME280;69218;52.132;5.418;2023-06-22T08:22:43;101890.13;;;24.50;55.60
79729;BME280;69218;52.132;5.418;2023-06-22T08:25:10;101881.28;;;24.71;56.05
79729;BME280;69218;52.132;5.418;2023-06-22T08:27:37;101882.59;;;24.96;55.27
79729;BME280;69218;52.132;5.418;2023-06-22T08:30:04;101873.81;;;24.87;56.58
79729;BME280;69218;52.132;5.418;2023-06-22T08:32:31;101873.44;;;24.90;54.88
79729;BME280;69218;52.132;5.418;2023-06-22T08:34:59;101856.28;;;25.06;55.57
79729;BME280;69218;52.132;5.418;2023-06-22T08:37:26;101858.25;;;25.19;53.58
79729;BME280;69218;52.132;5.418;2023-06-22T08:39:58;101859.06;;;24.98;53.58
79729;BME280;69218;52.132;5.418;2023-06-22T08:42:25;101861.19;;;25.03;53.74
79729;BME280;69218;52.132;5.418;2023-06-22T08:44:52;101857.50;;;25.04;53.47
79729;BME280;69218;52.132;5.418;2023-06-22T08:47:19;101848.47;;;25.11;52.43
79729;BME280;69218;52.132;5.418;2023-06-22T08:49:46;101851.81;;;25.13;51.53
79729;BME280;69218;52.132;5.418;2023-06-22T08:52:13;101842.81;;;25.28;51.24
79729;BME280;69218;52.132;5.418;2023-06-22T08:54:40;101844.88;;;25.54;51.08
79729;BME280;69218;52.132;5.418;2023-06-22T08:57:06;101840.63;;;25.66;51.28
79729;BME280;69218;52.132;5.418;2023-06-22T08:59:33;101845.75;;;25.89;50.98
79729;BME280;69218;52.132;5.418;2023-06-22T09:01:59;101847.13;;;26.19;48.42
79729;BME280;69218;52.132;5.418;2023-06-22T09:04:26;101839.72;;;26.35;48.98
79729;BME280;69218;52.132;5.418;2023-06-22T09:06:53;101847.50;;;26.58;48.38
79729;BME280;69218;52.132;5.418;2023-06-22T09:09:21;101853.03;;;26.49;47.69
79729;BME280;69218;52.132;5.418;2023-06-22T09:11:47;101845.75;;;26.37;46.75
79729;BME280;69218;52.132;5.418;2023-06-22T09:14:14;101845.53;;;26.38;46.82
79729;BME280;69218;52.132;5.418;2023-06-22T09:16:40;101844.16;;;26.55;46.94
79729;BME280;69218;52.132;5.418;2023-06-22T09:19:07;101848.53;;;26.70;46.71
79729;BME280;69218;52.132;5.418;2023-06-22T09:21:33;101841.47;;;26.55;45.28
79729;BME280;69218;52.132;5.418;2023-06-22T09:24:00;101839.63;;;26.69;47.01
79729;BME280;69218;52.132;5.418;2023-06-22T09:26:27;101840.28;;;26.71;46.11
79729;BME280;69218;52.132;5.418;2023-06-22T09:28:53;101840.09;;;26.79;45.89
79729;BME280;69218;52.132;5.418;2023-06-22T09:31:21;101849.63;;;26.95;45.62
79729;BME280;69218;52.132;5.418;2023-06-22T09:33:56;101833.28;;;27.10;45.17
79729;BME280;69218;52.132;5.418;2023-06-22T09:36:23;101830.00;;;27.21;44.26
79729;BME280;69218;52.132;5.418;2023-06-22T09:38:50;101830.59;;;27.43;44.55
79729;BME280;69218;52.132;5.418;2023-06-22T09:41:22;101829.09;;;27.60;44.51
79729;BME280;69218;52.132;5.418;2023-06-22T09:43:48;101830.75;;;27.68;43.96
79729;BME280;69218;52.132;5.418;2023-06-22T09:46:15;101828.66;;;27.77;42.11
79729;BME280;69218;52.132;5.418;2023-06-22T09:48:42;101824.09;;;27.84;42.43
79729;BME280;69218;52.132;5.418;2023-06-22T09:51:09;101816.22;;;27.76;43.14
79729;BME280;69218;52.132;5.418;2023-06-22T09:53:36;101822.03;;;27.73;44.63
79729;BME280;69218;52.132;5.418;2023-06-22T09:56:03;101821.44;;;27.64;44.37
79729;BME280;69218;52.132;5.418;2023-06-22T09:58:30;101827.22;;;27.54;44.43
79729;BME280;69218;52.132;5.418;2023-06-22T10:00:56;101827.28;;;27.28;44.18
79729;BME280;69218;52.132;5.418;2023-06-22T10:03:25;101828.13;;;27.22;44.39
79729;BME280;69218;52.132;5.418;2023-06-22T10:05:52;101825.00;;;27.12;44.75
79729;BME280;69218;52.132;5.418;2023-06-22T10:08:19;101828.09;;;27.02;44.79
79729;BME280;69218;52.132;5.418;2023-06-22T10:10:45;101835.31;;;26.88;44.92
79729;BME280;69218;52.132;5.418;2023-06-22T10:13:12;101835.72;;;26.85;45.06
79729;BME280;69218;52.132;5.418;2023-06-22T10:15:39;101831.19;;;26.86;45.68
79729;BME280;69218;52.132;5.418;2023-06-22T10:18:05;101830.75;;;26.82;44.35
79729;BME280;69218;52.132;5.418;2023-06-22T10:20:32;101820.59;;;26.71;43.99
79729;BME280;69218;52.132;5.418;2023-06-22T10:22:58;101822.63;;;26.55;42.93
79729;BME280;69218;52.132;5.418;2023-06-22T10:25:26;101822.03;;;26.53;46.12
79729;BME280;69218;52.132;5.418;2023-06-22T10:27:53;101823.69;;;26.54;46.36
79729;BME280;69218;52.132;5.418;2023-06-22T10:30:20;101828.84;;;26.49;45.23
79729;BME280;69218;52.132;5.418;2023-06-22T10:32:47;101826.09;;;26.36;44.95
79729;BME280;69218;52.132;5.418;2023-06-22T10:35:14;101823.56;;;26.28;44.91
79729;BME280;69218;52.132;5.418;2023-06-22T10:37:45;101833.53;;;26.34;45.68
79729;BME280;69218;52.132;5.418;2023-06-22T10:40:14;101828.75;;;26.23;45.44
79729;BME280;69218;52.132;5.418;2023-06-22T10:42:41;101826.00;;;26.10;46.32
79729;BME280;69218;52.132;5.418;2023-06-22T10:45:08;101828.94;;;26.15;48.17
79729;BME280;69218;52.132;5.418;2023-06-22T10:47:36;101823.72;;;26.13;46.93
79729;BME280;69218;52.132;5.418;2023-06-22T10:50:03;101828.44;;;26.05;45.82
79729;BME280;69218;52.132;5.418;2023-06-22T10:52:30;101822.84;;;25.99;45.47
79729;BME280;69218;52.132;5.418;2023-06-22T10:54:56;101828.44;;;26.05;47.17
79729;BME280;69218;52.132;5.418;2023-06-22T10:57:23;101825.16;;;26.02;46.33
79729;BME280;69218;52.132;5.418;2023-06-22T10:59:50;101827.34;;;25.92;45.68
79729;BME280;69218;52.132;5.418;2023-06-22T11:02:16;101829.84;;;25.87;46.71
79729;BME280;69218;52.132;5.418;2023-06-22T11:04:43;101818.13;;;26.01;47.71
79729;BME280;69218;52.132;5.418;2023-06-22T11:07:10;101826.22;;;26.08;46.84
79729;BME280;69218;52.132;5.418;2023-06-22T11:09:36;101829.06;;;26.07;46.83
79729;BME280;69218;52.132;5.418;2023-06-22T11:12:05;101823.09;;;26.11;46.34
79729;BME280;69218;52.132;5.418;2023-06-22T11:14:32;101816.50;;;26.20;47.43
79729;BME280;69218;52.132;5.418;2023-06-22T11:17:00;101807.41;;;26.21;47.62
79729;BME280;69218;52.132;5.418;2023-06-22T11:19:29;101816.78;;;26.32;47.67
79729;BME280;69218;52.132;5.418;2023-06-22T11:21:56;101811.97;;;26.27;46.49
79729;BME280;69218;52.132;5.418;2023-06-22T11:24:22;101816.31;;;26.28;46.91
79729;BME280;69218;52.132;5.418;2023-06-22T11:26:49;101809.31;;;26.34;48.18
79729;BME280;69218;52.132;5.418;2023-06-22T11:29:15;101814.75;;;26.41;48.62
79729;BME280;69218;52.132;5.418;2023-06-22T11:32:02;101805.66;;;26.48;49.58
79729;BME280;69218;52.132;5.418;2023-06-22T11:34:29;101803.22;;;26.60;49.28
79729;BME280;69218;52.132;5.418;2023-06-22T11:36:55;101804.03;;;26.61;48.79
79729;BME280;69218;52.132;5.418;2023-06-22T11:39:22;101799.25;;;26.49;49.83
79729;BME280;69218;52.132;5.418;2023-06-22T11:42:06;101790.78;;;26.52;48.95
79729;BME280;69218;52.132;5.418;2023-06-22T11:44:34;101787.88;;;26.47;49.34
79729;BME280;69218;52.132;5.418;2023-06-22T11:47:00;101784.78;;;26.50;49.67
79729;BME280;69218;52.132;5.418;2023-06-22T11:49:27;101781.66;;;26.40;50.12
79729;BME280;69218;52.132;5.418;2023-06-22T11:51:53;101783.09;;;26.43;50.22
79729;BME280;69218;52.132;5.418;2023-06-22T11:54:21;101776.88;;;26.42;49.32
79729;BME280;69218;52.132;5.418;2023-06-22T11:56:48;101778.97;;;26.47;49.67
79729;BME280;69218;52.132;5.418;2023-06-22T11:59:14;101783.53;;;26.53;49.91
79729;BME280;69218;52.132;5.418;2023-06-22T12:01:41;101773.19;;;26.56;49.59
79729;BME280;69218;52.132;5.418;2023-06-22T12:04:08;101779.81;;;26.47;49.94
79729;BME280;69218;52.132;5.418;2023-06-22T12:06:38;101770.09;;;26.46;49.20
79729;BME280;69218;52.132;5.418;2023-06-22T12:09:07;101768.84;;;26.55;49.71
79729;BME280;69218;52.132;5.418;2023-06-22T12:11:34;101768.66;;;26.50;49.60
79729;BME280;69218;52.132;5.418;2023-06-22T12:14:00;101764.50;;;26.48;49.55
79729;BME280;69218;52.132;5.418;2023-06-22T12:16:28;101759.53;;;26.51;50.85
79729;BME280;69218;52.132;5.418;2023-06-22T12:18:55;101755.41;;;26.55;50.34
79729;BME280;69218;52.132;5.418;2023-06-22T12:21:21;101769.25;;;26.46;50.64
79729;BME280;69218;52.132;5.418;2023-06-22T12:23:48;101767.09;;;26.21;50.08
79729;BME280;69218;52.132;5.418;2023-06-22T12:26:16;101767.94;;;26.15;50.82
79729;BME280;69218;52.132;5.418;2023-06-22T12:28:42;101764.56;;;26.07;50.90
79729;BME280;69218;52.132;5.418;2023-06-22T12:31:09;101764.50;;;25.93;52.28
79729;BME280;69218;52.132;5.418;2023-06-22T12:33:35;101754.56;;;25.81;51.98
79729;BME280;69218;52.132;5.418;2023-06-22T12:36:02;101761.06;;;25.65;54.36
79729;BME280;69218;52.132;5.418;2023-06-22T12:38:29;101754.44;;;25.61;54.17
79729;BME280;69218;52.132;5.418;2023-06-22T12:40:56;101760.16;;;25.44;54.99
79729;BME280;69218;52.132;5.418;2023-06-22T12:43:22;101755.34;;;25.40;56.23
79729;BME280;69218;52.132;5.418;2023-06-22T12:45:48;101751.41;;;25.36;55.79
79729;BME280;69218;52.132;5.418;2023-06-22T12:48:15;101752.63;;;25.33;55.19
79729;BME280;69218;52.132;5.418;2023-06-22T12:50:43;101755.47;;;25.25;54.47
79729;BME280;69218;52.132;5.418;2023-06-22T12:53:09;101747.34;;;25.12;54.17
79729;BME280;69218;52.132;5.418;2023-06-22T12:55:36;101747.75;;;25.15;55.38
79729;BME280;69218;52.132;5.418;2023-06-22T12:58:02;101737.84;;;25.16;54.85